Time;durP1;ratioP1;P1;durP2;ratioP2;P2;SDS_P1;SDS_P2;PMS_P1;PMS_P2;Temp;Humidity;BMP_temperature;BMP_pressure;BME280_temperature;BME280_humidity;BME280_pressure;Samples;Min_cycle;Max_cycle;Signal;HPM_P1;HPM_P2
2022/12/25 00:02:24;;;;;;;43.00;20.80;;;;;;;;;;4954390;28;20539;-68
2022/12/25 00:04:50;;;;;;;37.60;20.63;;;;;;;;;;4951057;28;20022;-68
2022/12/25 00:07:16;;;;;;;38.80;21.48;;;;;;;;;;4952654;28;20066;-70
2022/12/25 00:09:42;;;;;;;37.40;19.98;;;;;;;;;;4950019;28;20034;-68
2022/12/25 00:12:08;;;;;;;38.17;21.95;;;;;;;;;;4955622;28;20364;-68
2022/12/25 00:14:35;;;;;;;41.05;20.77;;;;;;;;;;4951037;28;20046;-68
2022/12/25 00:17:01;;;;;;;41.45;21.40;;;;;;;;;;4957232;28;20039;-68
2022/12/25 00:19:27;;;;;;;49.35;21.42;;;;;;;;;;4952294;28;20461;-68
2022/12/25 00:21:53;;;;;;;44.50;19.80;;;;;;;;;;4952982;28;20030;-68
2022/12/25 00:24:19;;;;;;;49.75;19.00;;;;;;;;;;4956889;28;20348;-68
2022/12/25 00:26:45;;;;;;;43.95;21.83;;;;;;;;;;4950964;28;20093;-68
2022/12/25 00:29:12;;;;;;;39.90;17.92;;;;;;;;;;4952241;28;20085;-68
2022/12/25 00:31:39;;;;;;;55.17;20.38;;;;;;;;;;4950714;28;20034;-69
2022/12/25 00:34:05;;;;;;;;;;;;;;;;;;4954909;28;20038;-69
2022/12/25 00:36:31;;;;;;;44.38;19.65;;;;;;;;;;4957638;28;20301;-68
2022/12/25 00:38:57;;;;;;;73.85;19.42;;;;;;;;;;4950114;28;20409;-68
2022/12/25 00:44:09;;;;;;;69.97;20.45;;;;;;;;;;4957506;28;20065;-68
2022/12/25 00:46:36;;;;;;;65.72;19.60;;;;;;;;;;4950767;28;20095;-67
2022/12/25 00:49:02;;;;;;;;;;;;;;;;;;4955272;28;20669;-68
2022/12/25 00:51:28;;;;;;;34.05;18.92;;;;;;;;;;4953634;28;20461;-68
2022/12/25 00:53:54;;;;;;;42.10;17.90;;;;;;;;;;4965300;28;20915;-68
2022/12/25 00:56:20;;;;;;;59.92;16.38;;;;;;;;;;4955574;28;20817;-68
2022/12/25 00:58:47;;;;;;;63.42;17.17;;;;;;;;;;4950214;28;20120;-68
2022/12/25 01:01:13;;;;;;;39.83;14.82;;;;;;;;;;4958352;28;20030;-68
2022/12/25 01:03:39;;;;;;;;;;;;;;;;;;4954138;28;20038;-68
2022/12/25 01:06:07;;;;;;;35.42;16.13;;;;;;;;;;4954292;28;19918;-68
2022/12/25 01:08:35;;;;;;;51.15;18.17;;;;;;;;;;4952911;28;20121;-68
2022/12/25 01:11:03;;;;;;;36.35;19.58;;;;;;;;;;4955926;28;20066;-68
2022/12/25 01:13:29;;;;;;;61.58;20.05;;;;;;;;;;4954090;28;20911;-68
2022/12/25 01:15:56;;;;;;;50.80;19.67;;;;;;;;;;4948350;28;20294;-68
2022/12/25 01:18:23;;;;;;;62.33;19.55;;;;;;;;;;4950859;28;20031;-68
2022/12/25 01:20:49;;;;;;;49.88;18.33;;;;;;;;;;4946788;28;20027;-68
2022/12/25 01:23:15;;;;;;;49.65;17.15;;;;;;;;;;4955257;28;20065;-70
2022/12/25 01:25:42;;;;;;;33.22;18.08;;;;;;;;;;4949706;28;20057;-68
2022/12/25 01:28:08;;;;;;;46.10;18.88;;;;;;;;;;4954620;28;20069;-70
2022/12/25 01:30:34;;;;;;;39.55;17.40;;;;;;;;;;4950729;28;20042;-67
2022/12/25 01:33:00;;;;;;;40.75;18.20;;;;;;;;;;4952462;28;20034;-67
2022/12/25 01:35:26;;;;;;;57.25;17.98;;;;;;;;;;4947011;28;20034;-67
2022/12/25 01:37:53;;;;;;;50.58;17.48;;;;;;;;;;4944548;28;20462;-68
2022/12/25 01:40:19;;;;;;;;;;;;;;;;;;4948517;28;20141;-67
2022/12/25 01:42:45;;;;;;;54.10;16.63;;;;;;;;;;4964727;28;19920;-67
2022/12/25 01:45:30;;;;;;;33.28;16.38;;;;;;;;;;4951832;28;20029;-67
2022/12/25 01:47:56;;;;;;;49.33;17.42;;;;;;;;;;4963803;28;20065;-68
2022/12/25 01:50:22;;;;;;;42.15;16.33;;;;;;;;;;4950657;28;20027;-69
2022/12/25 01:52:48;;;;;;;;;;;;;;;;;;4952083;28;20034;-68
2022/12/25 01:55:14;;;;;;;49.80;15.65;;;;;;;;;;4955054;28;19924;-68
2022/12/25 01:57:41;;;;;;;62.00;15.75;;;;;;;;;;4956907;28;20607;-67
2022/12/25 02:00:07;;;;;;;55.95;17.23;;;;;;;;;;4956143;28;20465;-68
2022/12/25 02:02:35;;;;;;;56.53;15.48;;;;;;;;;;4958221;28;20787;-67
2022/12/25 02:05:04;;;;;;;79.05;15.82;;;;;;;;;;4959078;28;20124;-67
2022/12/25 02:07:33;;;;;;;68.60;15.65;;;;;;;;;;4955652;28;20045;-67
2022/12/25 02:09:59;;;;;;;90.82;18.30;;;;;;;;;;4958255;28;20587;-67
2022/12/25 02:12:27;;;;;;;52.97;14.98;;;;;;;;;;4958126;28;20463;-68
2022/12/25 02:14:56;;;;;;;73.07;16.88;;;;;;;;;;4956655;28;20583;-67
2022/12/25 02:17:22;;;;;;;28.02;15.25;;;;;;;;;;4960290;28;20051;-67
2022/12/25 02:20:00;;;;;;;36.67;14.85;;;;;;;;;;4954230;28;20108;-68
2022/12/25 02:22:39;;;;;;;75.60;13.82;;;;;;;;;;4958967;28;21019;-66
2022/12/25 02:25:23;;;;;;;36.58;15.43;;;;;;;;;;4961749;28;20426;-67
2022/12/25 02:27:59;;;;;;;80.00;15.82;;;;;;;;;;4958454;28;20553;-67
2022/12/25 02:30:25;;;;;;;39.67;16.38;;;;;;;;;;4961174;28;20034;-66
2022/12/25 02:32:51;;;;;;;92.07;15.73;;;;;;;;;;4957053;28;20226;-67
2022/12/25 02:35:19;;;;;;;85.18;14.75;;;;;;;;;;4957919;28;20411;-67
2022/12/25 02:37:48;;;;;;;66.10;13.98;;;;;;;;;;4953886;28;20023;-67
2022/12/25 02:40:17;;;;;;;67.93;15.38;;;;;;;;;;4957819;28;20135;-67
2022/12/25 03:07:47;;;;;;;90.28;17.08;;;;;;;;;;4954241;28;20137;-67
2022/12/25 03:13:12;;;;;;;38.38;16.52;;;;;;;;;;4954314;28;20097;-67
2022/12/25 03:18:26;;;;;;;65.13;16.60;;;;;;;;;;4959739;28;20049;-67
2022/12/25 03:31:10;;;;;;;102.43;21.52;;;;;;;;;;4957657;28;20077;-67
2022/12/25 03:32:01;;;;;;;89.45;18.55;;;;;;;;;;4954676;28;20030;-68
2022/12/25 03:37:48;;;;;;;81.55;22.52;;;;;;;;;;4960081;28;20148;-67
2022/12/25 04:36:08;;;;;;;30.60;19.50;;;;;;;;;;4891785;29;20042;-67
2022/12/25 04:38:34;;;;;;;;;;;;;;;;;;4894649;29;20044;-68
2022/12/25 04:41:00;;;;;;;33.50;20.42;;;;;;;;;;4895341;29;20310;-67
2022/12/25 04:43:27;;;;;;;39.78;23.15;;;;;;;;;;4888692;29;20044;-67
2022/12/25 04:45:54;;;;;;;35.55;20.98;;;;;;;;;;4882234;29;20040;-67
2022/12/25 04:48:20;;;;;;;39.38;22.02;;;;;;;;;;4892093;29;20039;-67
2022/12/25 04:50:46;;;;;;;;;;;;;;;;;;4891964;29;20406;-67
2022/12/25 04:53:12;;;;;;;34.30;19.63;;;;;;;;;;4890164;29;19982;-67
2022/12/25 04:55:38;;;;;;;29.35;19.83;;;;;;;;;;4909336;28;20081;-67
2022/12/25 04:58:04;;;;;;;32.65;18.63;;;;;;;;;;4930317;28;20046;-67
2022/12/25 05:00:30;;;;;;;34.30;22.00;;;;;;;;;;4949579;28;20468;-68
2022/12/25 05:02:57;;;;;;;32.95;19.88;;;;;;;;;;4944663;28;20497;-66
2022/12/25 05:05:23;;;;;;;36.75;18.67;;;;;;;;;;4952954;28;20580;-66
2022/12/25 05:07:49;;;;;;;31.13;16.75;;;;;;;;;;4951562;28;20284;-66
2022/12/25 05:10:16;;;;;;;33.15;18.73;;;;;;;;;;4958590;28;20133;-66
2022/12/25 05:12:42;;;;;;;;;;;;;;;;;;4954301;28;21470;-67
2022/12/25 05:15:08;;;;;;;30.60;17.65;;;;;;;;;;4958167;28;19964;-66
2022/12/25 05:17:36;;;;;;;30.67;18.10;;;;;;;;;;4955302;28;20480;-66
2022/12/25 05:20:02;;;;;;;34.00;18.98;;;;;;;;;;4953401;28;20332;-67
2022/12/25 05:22:28;;;;;;;32.15;16.92;;;;;;;;;;4954167;28;20057;-67
2022/12/25 05:24:55;;;;;;;29.27;18.17;;;;;;;;;;4952322;28;20035;-66
2022/12/25 05:27:21;;;;;;;;;;;;;;;;;;4959154;28;21144;-66
2022/12/25 05:29:47;;;;;;;28.13;14.50;;;;;;;;;;4966362;28;19972;-67
2022/12/25 05:32:13;;;;;;;27.20;15.00;;;;;;;;;;4957512;28;20046;-67
2022/12/25 05:34:39;;;;;;;29.38;17.15;;;;;;;;;;4957660;28;20148;-66
2022/12/25 05:37:05;;;;;;;30.10;16.42;;;;;;;;;;4956194;28;20453;-69
2022/12/25 05:39:31;;;;;;;27.35;16.23;;;;;;;;;;4957479;28;20077;-66
2022/12/25 05:41:58;;;;;;;30.25;16.25;;;;;;;;;;4952316;28;20038;-66
2022/12/25 05:44:24;;;;;;;31.40;16.52;;;;;;;;;;4953793;28;20487;-66
2022/12/25 05:46:50;;;;;;;30.90;17.77;;;;;;;;;;4952009;28;21166;-66
2022/12/25 05:49:16;;;;;;;33.97;19.25;;;;;;;;;;4957319;28;20888;-66
2022/12/25 05:51:42;;;;;;;34.80;17.33;;;;;;;;;;4952476;28;20642;-67
2022/12/25 05:54:08;;;;;;;30.55;18.20;;;;;;;;;;4953835;28;20046;-68
2022/12/25 05:56:35;;;;;;;30.58;17.35;;;;;;;;;;4952755;28;20036;-68
2022/12/25 05:59:01;;;;;;;33.42;19.25;;;;;;;;;;4955803;28;20027;-68
2022/12/25 06:01:27;;;;;;;30.45;16.63;;;;;;;;;;4956188;28;20045;-69
2022/12/25 06:03:54;;;;;;;28.02;16.27;;;;;;;;;;4952753;28;20034;-66
2022/12/25 06:06:20;;;;;;;25.88;14.25;;;;;;;;;;4955205;28;20030;-66
2022/12/25 06:08:46;;;;;;;39.05;20.23;;;;;;;;;;4951173;28;20619;-66
2022/12/25 06:11:13;;;;;;;32.97;18.23;;;;;;;;;;4952462;28;20579;-67
2022/12/25 06:13:39;;;;;;;37.72;18.67;;;;;;;;;;4952255;28;20060;-66
2022/12/25 06:16:05;;;;;;;;;;;;;;;;;;4954943;28;20046;-66
2022/12/25 06:18:31;;;;;;;31.20;17.95;;;;;;;;;;4954038;28;19973;-67
2022/12/25 06:20:57;;;;;;;37.97;19.23;;;;;;;;;;4949535;28;20030;-67
2022/12/25 06:23:23;;;;;;;34.47;17.52;;;;;;;;;;4958059;28;20541;-67
2022/12/25 06:25:50;;;;;;;38.28;19.45;;;;;;;;;;4954588;28;20030;-66
2022/12/25 06:28:16;;;;;;;33.38;20.27;;;;;;;;;;4958325;28;20133;-68
2022/12/25 06:30:42;;;;;;;37.40;19.88;;;;;;;;;;4954840;28;20397;-66
2022/12/25 06:33:08;;;;;;;34.75;21.83;;;;;;;;;;4961540;28;20875;-67
2022/12/25 06:35:38;;;;;;;32.75;19.00;;;;;;;;;;4956803;28;20104;-66
2022/12/25 06:38:04;;;;;;;42.67;20.45;;;;;;;;;;4954654;28;20416;-66
2022/12/25 06:40:30;;;;;;;31.58;19.52;;;;;;;;;;4958494;28;20049;-66
2022/12/25 06:42:56;;;;;;;39.58;22.25;;;;;;;;;;4956272;28;20027;-66
2022/12/25 06:45:22;;;;;;;32.30;20.30;;;;;;;;;;4957905;28;20045;-66
2022/12/25 06:47:48;;;;;;;34.75;20.83;;;;;;;;;;4954145;28;20203;-66
2022/12/25 06:50:15;;;;;;;40.20;23.23;;;;;;;;;;4954686;28;20041;-66
2022/12/25 06:52:41;;;;;;;40.42;21.60;;;;;;;;;;4956304;28;20031;-66
2022/12/25 06:55:07;;;;;;;38.20;23.10;;;;;;;;;;4952822;28;20031;-66
2022/12/25 06:57:33;;;;;;;39.50;22.73;;;;;;;;;;4958736;28;20436;-66
2022/12/25 07:00:00;;;;;;;45.25;24.10;;;;;;;;;;4955714;28;20034;-66
2022/12/25 07:02:26;;;;;;;43.90;24.02;;;;;;;;;;4956512;28;20086;-66
2022/12/25 07:04:52;;;;;;;39.63;20.15;;;;;;;;;;4951823;28;20031;-66
2022/12/25 07:07:20;;;;;;;37.58;23.02;;;;;;;;;;4956770;28;20101;-66
2022/12/25 07:09:46;;;;;;;35.38;21.35;;;;;;;;;;4954916;28;20050;-67
2022/12/25 07:12:15;;;;;;;37.42;21.38;;;;;;;;;;4955849;28;20030;-67
2022/12/25 07:14:41;;;;;;;37.35;19.35;;;;;;;;;;4952791;28;20050;-66
2022/12/25 07:17:08;;;;;;;36.85;20.02;;;;;;;;;;4953765;28;20381;-66
2022/12/25 07:19:34;;;;;;;34.38;20.00;;;;;;;;;;4956880;28;20469;-66
2022/12/25 07:22:00;;;;;;;;;;;;;;;;;;4957416;28;20036;-66
2022/12/25 07:24:26;;;;;;;35.40;19.95;;;;;;;;;;4958871;28;20232;-66
2022/12/25 07:26:52;;;;;;;28.73;18.13;;;;;;;;;;4953119;28;20108;-66
2022/12/25 07:29:18;;;;;;;30.30;19.77;;;;;;;;;;4958901;28;20053;-66
2022/12/25 07:31:45;;;;;;;33.60;17.92;;;;;;;;;;4955245;28;20553;-66
2022/12/25 07:34:11;;;;;;;34.30;20.13;;;;;;;;;;4953191;28;20031;-67
2022/12/25 07:36:37;;;;;;;34.28;19.45;;;;;;;;;;4952360;28;20058;-67
2022/12/25 07:39:03;;;;;;;30.23;19.25;;;;;;;;;;4959765;28;20023;-66
2022/12/25 07:41:30;;;;;;;32.85;19.10;;;;;;;;;;4958126;28;20133;-66
2022/12/25 07:43:56;;;;;;;34.53;18.92;;;;;;;;;;4953134;28;20157;-68
2022/12/25 07:46:22;;;;;;;33.47;19.73;;;;;;;;;;4953934;28;20629;-66
2022/12/25 07:48:49;;;;;;;32.65;18.17;;;;;;;;;;4953155;28;20469;-66
2022/12/25 07:51:15;;;;;;;29.88;17.42;;;;;;;;;;4957546;28;20031;-66
2022/12/25 07:53:43;;;;;;;31.63;18.08;;;;;;;;;;4955144;28;20030;-66
2022/12/25 07:56:13;;;;;;;32.63;19.10;;;;;;;;;;4972590;28;20580;-66
2022/12/25 07:58:42;;;;;;;26.80;17.33;;;;;;;;;;4953275;28;20057;-66
2022/12/25 08:01:12;;;;;;;31.20;18.67;;;;;;;;;;4957204;28;20295;-66
2022/12/25 08:03:38;;;;;;;29.45;16.25;;;;;;;;;;4951312;28;20045;-66
2022/12/25 08:06:06;;;;;;;28.23;16.15;;;;;;;;;;4957710;28;20038;-65
2022/12/25 08:08:33;;;;;;;26.15;15.05;;;;;;;;;;4959916;28;20033;-65
2022/12/25 08:10:59;;;;;;;25.42;14.98;;;;;;;;;;4954975;28;20132;-65
2022/12/25 08:13:25;;;;;;;26.20;14.85;;;;;;;;;;4959562;28;20034;-65
2022/12/25 08:15:58;;;;;;;24.40;15.20;;;;;;;;;;4953431;28;20054;-67
2022/12/25 08:18:25;;;;;;;26.42;13.05;;;;;;;;;;4959930;28;20038;-68
2022/12/25 08:20:51;;;;;;;24.95;13.57;;;;;;;;;;4953682;28;20027;-67
2022/12/25 08:23:17;;;;;;;20.92;12.35;;;;;;;;;;4956661;28;20030;-68
2022/12/25 08:25:43;;;;;;;16.02;10.65;;;;;;;;;;4953470;28;20663;-68
2022/12/25 08:28:09;;;;;;;20.77;12.95;;;;;;;;;;4954060;28;20027;-68
2022/12/25 08:30:38;;;;;;;20.58;11.07;;;;;;;;;;4952881;28;20048;-67
2022/12/25 08:33:04;;;;;;;19.65;10.38;;;;;;;;;;4956002;28;20041;-66
2022/12/25 08:35:33;;;;;;;18.90;9.93;;;;;;;;;;4954549;28;20046;-67
2022/12/25 08:37:59;;;;;;;20.00;11.15;;;;;;;;;;4950362;28;20283;-68
2022/12/25 08:40:25;;;;;;;20.35;10.90;;;;;;;;;;4956203;28;20026;-67
2022/12/25 08:42:51;;;;;;;;;;;;;;;;;;4955142;28;20030;-68
2022/12/25 08:45:17;;;;;;;16.35;7.53;;;;;;;;;;4957977;28;20688;-68
2022/12/25 08:47:44;;;;;;;17.58;8.43;;;;;;;;;;4951156;28;20051;-67
2022/12/25 08:50:10;;;;;;;;;;;;;;;;;;4952654;28;20145;-65
2022/12/25 08:52:36;;;;;;;19.55;8.20;;;;;;;;;;4956001;28;19961;-67
2022/12/25 08:55:02;;;;;;;;;;;;;;;;;;4955788;28;20532;-68
2022/12/25 08:57:28;;;;;;;18.85;8.13;;;;;;;;;;4956196;28;20001;-67
2022/12/25 08:59:54;;;;;;;;;;;;;;;;;;4955095;28;20035;-68
2022/12/25 09:02:20;;;;;;;15.38;6.15;;;;;;;;;;4966897;28;19983;-67
2022/12/25 09:04:46;;;;;;;;;;;;;;;;;;4953430;28;20112;-66
2022/12/25 09:07:12;;;;;;;16.50;5.45;;;;;;;;;;4953075;28;20826;-66
2022/12/25 09:09:38;;;;;;;13.80;5.55;;;;;;;;;;4950489;28;20539;-66
2022/12/25 09:12:05;;;;;;;15.73;5.32;;;;;;;;;;4951160;28;20593;-66
2022/12/25 09:14:31;;;;;;;14.80;5.07;;;;;;;;;;4954861;28;20030;-69
2022/12/25 09:16:57;;;;;;;;;;;;;;;;;;4954786;28;20488;-66
2022/12/25 09:19:23;;;;;;;11.98;3.95;;;;;;;;;;4955284;28;19913;-68
2022/12/25 09:21:49;;;;;;;;;;;;;;;;;;4953959;28;20038;-67
2022/12/25 09:24:15;;;;;;;14.45;4.20;;;;;;;;;;4955175;28;19913;-66
2022/12/25 09:26:41;;;;;;;;;;;;;;;;;;4954495;28;20049;-69
2022/12/25 09:29:07;;;;;;;17.10;4.78;;;;;;;;;;4953098;28;19914;-68
2022/12/25 09:31:33;;;;;;;16.42;6.00;;;;;;;;;;4957297;28;20049;-68
2022/12/25 09:34:00;;;;;;;17.38;6.53;;;;;;;;;;4953747;28;20144;-68
2022/12/25 09:36:26;;;;;;;16.33;7.22;;;;;;;;;;4956768;28;20445;-68
2022/12/25 09:38:52;;;;;;;14.82;5.90;;;;;;;;;;4946618;28;20121;-67
2022/12/25 09:41:28;;;;;;;13.18;5.50;;;;;;;;;;4952028;28;20054;-68
2022/12/25 09:44:00;;;;;;;15.57;5.13;;;;;;;;;;4965208;28;20285;-68
2022/12/25 09:46:26;;;;;;;14.35;5.35;;;;;;;;;;4949305;28;20030;-68
2022/12/25 09:48:56;;;;;;;15.48;5.68;;;;;;;;;;4950741;28;20049;-68
2022/12/25 09:51:23;;;;;;;17.60;5.43;;;;;;;;;;4955187;28;20142;-68
2022/12/25 09:53:53;;;;;;;11.77;4.57;;;;;;;;;;4952462;28;20046;-68
2022/12/25 09:56:24;;;;;;;14.77;4.70;;;;;;;;;;4951504;28;20035;-68
2022/12/25 09:58:51;;;;;;;13.73;5.50;;;;;;;;;;4952219;28;20061;-67
2022/12/25 10:01:29;;;;;;;14.52;4.72;;;;;;;;;;4958682;28;20042;-67
2022/12/25 10:03:55;;;;;;;13.23;4.45;;;;;;;;;;4956904;28;20121;-67
2022/12/25 10:06:21;;;;;;;;;;;;;;;;;;4956358;28;20026;-67
2022/12/25 10:09:06;;;;;;;13.23;3.83;;;;;;;;;;4953605;28;20390;-67
2022/12/25 10:11:35;;;;;;;12.77;4.05;;;;;;;;;;4955683;28;20026;-68
2022/12/25 10:14:04;;;;;;;14.07;4.30;;;;;;;;;;4956037;28;20133;-67
2022/12/25 10:16:30;;;;;;;13.70;4.25;;;;;;;;;;4955914;28;20171;-67
2022/12/25 10:18:56;;;;;;;;;;;;;;;;;;4957967;28;20038;-67
2022/12/25 10:21:23;;;;;;;12.65;3.97;;;;;;;;;;4959546;28;20382;-67
2022/12/25 10:23:51;;;;;;;11.70;3.88;;;;;;;;;;4956217;28;20022;-66
2022/12/25 10:26:23;;;;;;;12.63;4.13;;;;;;;;;;4959303;28;20531;-66
2022/12/25 10:28:59;;;;;;;14.15;4.75;;;;;;;;;;4953189;28;20027;-67
2022/12/25 10:31:27;;;;;;;11.90;4.25;;;;;;;;;;4957370;28;20038;-67
2022/12/25 10:33:53;;;;;;;12.88;4.43;;;;;;;;;;4952610;28;20089;-67
2022/12/25 10:36:21;;;;;;;13.27;3.97;;;;;;;;;;4959574;28;20088;-67
2022/12/25 10:38:47;;;;;;;14.30;4.47;;;;;;;;;;4954974;28;20026;-68
2022/12/25 10:41:34;;;;;;;15.32;4.63;;;;;;;;;;4957986;28;20759;-68
2022/12/25 10:44:11;;;;;;;13.55;4.28;;;;;;;;;;4956522;28;20031;-68
2022/12/25 10:46:37;;;;;;;12.75;4.38;;;;;;;;;;4953568;28;20082;-68
2022/12/25 10:49:03;;;;;;;15.98;4.90;;;;;;;;;;4958570;28;20057;-68
2022/12/25 10:51:36;;;;;;;11.80;3.90;;;;;;;;;;4956776;28;20038;-68
2022/12/25 10:54:03;;;;;;;10.30;3.30;;;;;;;;;;4971390;28;20564;-68
2022/12/25 10:56:30;;;;;;;15.90;4.47;;;;;;;;;;4958938;28;20930;-69
2022/12/25 10:59:06;;;;;;;11.00;4.13;;;;;;;;;;4953717;28;20157;-69
2022/12/25 11:01:33;;;;;;;13.73;4.38;;;;;;;;;;4960386;28;20136;-68
2022/12/25 11:03:59;;;;;;;12.43;5.03;;;;;;;;;;4959447;28;20109;-68
2022/12/25 11:06:27;;;;;;;17.77;6.05;;;;;;;;;;4959690;28;20046;-67
2022/12/25 11:08:54;;;;;;;13.68;5.43;;;;;;;;;;4953882;28;20030;-67
2022/12/25 11:11:21;;;;;;;14.02;5.03;;;;;;;;;;4953668;28;20104;-68
2022/12/25 11:13:48;;;;;;;12.98;4.95;;;;;;;;;;4955555;28;20126;-68
2022/12/25 11:16:25;;;;;;;14.75;4.40;;;;;;;;;;4958926;28;20058;-67
2022/12/25 11:18:53;;;;;;;11.75;4.68;;;;;;;;;;4953880;28;20035;-67
2022/12/25 11:21:29;;;;;;;14.15;4.82;;;;;;;;;;4958346;28;20125;-68
2022/12/25 11:23:58;;;;;;;13.75;6.05;;;;;;;;;;4966728;28;20089;-69
2022/12/25 11:26:24;;;;;;;15.25;6.90;;;;;;;;;;4958553;28;20035;-68
2022/12/25 11:28:51;;;;;;;15.48;6.65;;;;;;;;;;4956286;28;20159;-68
2022/12/25 11:31:19;;;;;;;11.82;4.93;;;;;;;;;;4955428;28;20144;-67
2022/12/25 11:33:49;;;;;;;15.43;5.22;;;;;;;;;;4957126;28;20038;-65
2022/12/25 11:36:24;;;;;;;15.35;5.50;;;;;;;;;;4955164;28;20536;-68
2022/12/25 11:38:51;;;;;;;14.50;4.93;;;;;;;;;;4951243;28;20023;-69
2022/12/25 11:41:21;;;;;;;11.88;4.38;;;;;;;;;;4958304;28;20331;-68
2022/12/25 11:43:56;;;;;;;14.02;5.03;;;;;;;;;;4953753;28;20517;-68
2022/12/25 11:46:32;;;;;;;14.02;5.38;;;;;;;;;;4952620;28;20367;-67
2022/12/25 11:48:58;;;;;;;;;;;;;;;;;;4957573;28;20038;-70
2022/12/25 11:51:26;;;;;;;14.00;4.72;;;;;;;;;;4959552;28;19913;-69
2022/12/25 11:53:59;;;;;;;12.52;4.50;;;;;;;;;;4954822;28;20290;-67
2022/12/25 11:56:28;;;;;;;12.18;4.68;;;;;;;;;;4956366;28;20045;-68
2022/12/25 11:59:06;;;;;;;15.10;4.75;;;;;;;;;;4956451;28;20133;-67
2022/12/25 12:01:51;;;;;;;12.73;4.13;;;;;;;;;;4956854;28;20564;-68
2022/12/25 12:04:23;;;;;;;13.05;4.60;;;;;;;;;;4956444;28;20427;-68
2022/12/25 12:07:02;;;;;;;13.18;4.15;;;;;;;;;;4956693;28;20034;-68
2022/12/25 12:09:31;;;;;;;12.02;4.38;;;;;;;;;;4954272;28;20029;-68
2022/12/25 12:12:21;;;;;;;14.13;4.90;;;;;;;;;;4953546;28;20057;-67
2022/12/25 12:14:53;;;;;;;13.35;4.47;;;;;;;;;;4933420;28;20050;-69
2022/12/25 12:17:19;;;;;;;14.15;4.47;;;;;;;;;;4920520;28;20050;-68
2022/12/25 12:19:46;;;;;;;14.50;5.03;;;;;;;;;;4932225;28;20042;-68
2022/12/25 12:22:19;;;;;;;11.80;3.97;;;;;;;;;;4935939;28;20104;-68
2022/12/25 12:24:47;;;;;;;13.50;4.55;;;;;;;;;;4932210;28;20034;-68
2022/12/25 12:27:22;;;;;;;11.60;4.03;;;;;;;;;;4917115;28;20043;-68
2022/12/25 12:29:50;;;;;;;12.93;3.80;;;;;;;;;;4932808;28;20053;-69
2022/12/25 12:32:27;;;;;;;13.40;4.20;;;;;;;;;;4935390;28;20067;-69
2022/12/25 12:34:53;;;;;;;16.73;4.70;;;;;;;;;;4932254;28;20292;-66
2022/12/25 12:37:26;;;;;;;12.75;4.10;;;;;;;;;;4919664;28;20030;-68
2022/12/25 12:39:54;;;;;;;12.75;4.32;;;;;;;;;;4931925;28;20509;-67
2022/12/25 12:42:24;;;;;;;12.05;4.43;;;;;;;;;;4936110;28;20026;-68
2022/12/25 12:44:51;;;;;;;12.52;3.83;;;;;;;;;;4935481;28;20134;-68
2022/12/25 12:47:32;;;;;;;13.18;3.97;;;;;;;;;;4935859;28;20146;-68
2022/12/25 12:49:59;;;;;;;13.10;3.78;;;;;;;;;;4932455;28;20034;-69
2022/12/25 12:52:36;;;;;;;12.85;4.10;;;;;;;;;;4952877;28;20049;-68
2022/12/25 12:55:11;;;;;;;13.10;4.50;;;;;;;;;;4956748;28;20034;-68
2022/12/25 12:57:38;;;;;;;12.65;4.00;;;;;;;;;;4955327;28;20501;-66
2022/12/25 13:00:05;;;;;;;10.45;3.40;;;;;;;;;;4956149;28;20448;-69
2022/12/25 13:02:48;;;;;;;10.82;3.90;;;;;;;;;;4954113;28;20034;-69
2022/12/25 13:05:33;;;;;;;12.93;4.78;;;;;;;;;;4960890;28;20034;-67
2022/12/25 13:08:09;;;;;;;13.07;5.28;;;;;;;;;;4949747;28;20879;-67
2022/12/25 13:10:37;;;;;;;14.10;4.72;;;;;;;;;;4956325;28;20213;-68
2022/12/25 13:13:22;;;;;;;14.85;4.93;;;;;;;;;;4954725;28;20437;-68
2022/12/25 13:15:50;;;;;;;13.65;4.97;;;;;;;;;;4947961;28;20181;-67
2022/12/25 13:18:16;;;;;;;13.68;4.35;;;;;;;;;;4955219;28;20039;-69
2022/12/25 13:20:53;;;;;;;12.18;4.57;;;;;;;;;;4954374;28;20562;-68
2022/12/25 13:23:24;;;;;;;13.38;4.00;;;;;;;;;;4955924;28;20138;-68
2022/12/25 13:25:55;;;;;;;12.13;4.00;;;;;;;;;;4949841;28;20354;-68
2022/12/25 13:28:27;;;;;;;11.20;3.97;;;;;;;;;;4955141;28;20042;-68
2022/12/25 13:31:00;;;;;;;13.00;4.45;;;;;;;;;;4953185;28;20042;-68
2022/12/25 13:33:26;;;;;;;13.00;4.47;;;;;;;;;;4961863;28;20647;-68
2022/12/25 13:35:53;;;;;;;11.10;4.50;;;;;;;;;;4956146;28;20458;-68
2022/12/25 13:38:19;;;;;;;14.45;4.90;;;;;;;;;;4959717;28;20308;-67
2022/12/25 13:43:38;;;;;;;15.43;4.70;;;;;;;;;;4954270;28;20107;-68
2022/12/25 13:46:04;;;;;;;12.45;4.32;;;;;;;;;;4958822;28;20030;-68
2022/12/25 13:48:30;;;;;;;10.88;4.13;;;;;;;;;;4954204;28;20488;-68
2022/12/25 13:50:58;;;;;;;14.23;4.40;;;;;;;;;;4957708;28;20057;-68
2022/12/25 13:53:24;;;;;;;13.00;4.90;;;;;;;;;;4958195;28;20132;-68
2022/12/25 13:55:52;;;;;;;13.30;5.05;;;;;;;;;;4957750;28;20038;-68
2022/12/25 13:58:24;;;;;;;11.73;4.40;;;;;;;;;;4952544;28;20146;-67
2022/12/25 14:00:52;;;;;;;13.65;4.25;;;;;;;;;;4957604;28;20030;-70
2022/12/25 14:03:24;;;;;;;12.85;4.60;;;;;;;;;;4957500;28;20354;-67
2022/12/25 14:05:57;;;;;;;12.20;4.28;;;;;;;;;;4955485;28;20088;-68
2022/12/25 14:08:25;;;;;;;11.27;4.50;;;;;;;;;;4973822;28;20157;-67
2022/12/25 14:10:52;;;;;;;12.45;4.18;;;;;;;;;;4954552;28;20034;-67
2022/12/25 14:13:20;;;;;;;13.80;5.72;;;;;;;;;;4959339;28;20034;-67
2022/12/25 14:15:47;;;;;;;14.90;5.30;;;;;;;;;;4954932;28;20053;-67
2022/12/25 14:18:14;;;;;;;13.60;5.32;;;;;;;;;;4959471;28;20141;-67
2022/12/25 14:20:42;;;;;;;17.10;5.28;;;;;;;;;;4953912;28;20029;-68
2022/12/25 14:23:11;;;;;;;14.43;4.57;;;;;;;;;;4959993;28;20679;-67
2022/12/25 14:25:41;;;;;;;15.00;5.10;;;;;;;;;;4957822;28;20038;-67
2022/12/25 14:28:09;;;;;;;13.25;4.72;;;;;;;;;;4960777;28;20057;-66
2022/12/25 14:30:36;;;;;;;13.73;4.53;;;;;;;;;;4955330;28;20042;-67
2022/12/25 14:33:02;;;;;;;15.25;5.00;;;;;;;;;;4957481;28;20191;-68
2022/12/25 14:35:28;;;;;;;13.40;4.82;;;;;;;;;;4956082;28;20250;-67
2022/12/25 14:37:58;;;;;;;15.63;5.80;;;;;;;;;;4955183;28;20366;-68
2022/12/25 14:40:29;;;;;;;14.32;4.60;;;;;;;;;;4957223;28;20492;-68
2022/12/25 14:42:58;;;;;;;14.35;5.28;;;;;;;;;;4956369;28;20612;-68
2022/12/25 14:45:30;;;;;;;16.20;4.95;;;;;;;;;;4955171;28;20035;-67
2022/12/25 14:47:57;;;;;;;13.25;4.40;;;;;;;;;;4957255;28;20692;-68
2022/12/25 14:50:29;;;;;;;12.70;4.53;;;;;;;;;;4958531;28;20293;-69
2022/12/25 14:52:56;;;;;;;13.57;5.22;;;;;;;;;;4954276;28;21007;-69
2022/12/25 14:55:23;;;;;;;12.50;5.10;;;;;;;;;;4959133;28;20053;-69
2022/12/25 14:57:51;;;;;;;15.25;5.50;;;;;;;;;;4954576;28;20030;-67
2022/12/25 15:00:26;;;;;;;12.65;5.28;;;;;;;;;;4957431;28;20757;-69
2022/12/25 15:02:53;;;;;;;13.32;5.65;;;;;;;;;;4969063;28;20080;-69
2022/12/25 15:05:33;;;;;;;14.43;6.00;;;;;;;;;;4953913;28;20027;-69
2022/12/25 15:08:00;;;;;;;13.88;5.40;;;;;;;;;;4951610;28;20057;-68
2022/12/25 15:10:27;;;;;;;14.93;6.55;;;;;;;;;;4957224;28;20037;-67
2022/12/25 15:12:53;;;;;;;16.48;7.38;;;;;;;;;;4949385;28;20065;-69
2022/12/25 15:15:19;;;;;;;14.82;6.00;;;;;;;;;;4955598;28;20038;-69
2022/12/25 15:17:45;;;;;;;15.45;6.60;;;;;;;;;;4951654;28;20456;-69
2022/12/25 15:20:12;;;;;;;15.18;6.40;;;;;;;;;;4955437;28;20041;-69
2022/12/25 15:22:38;;;;;;;16.58;5.63;;;;;;;;;;4951692;28;20026;-68
2022/12/25 15:25:05;;;;;;;15.75;6.20;;;;;;;;;;4954760;28;20518;-69
2022/12/25 15:27:31;;;;;;;18.63;5.93;;;;;;;;;;4955947;28;20465;-69
2022/12/25 15:29:57;;;;;;;17.30;6.55;;;;;;;;;;4956867;28;20030;-68
2022/12/25 15:32:24;;;;;;;16.70;5.97;;;;;;;;;;4956284;28;20037;-67
2022/12/25 15:34:51;;;;;;;15.55;6.70;;;;;;;;;;4953777;28;20584;-69
2022/12/25 15:37:18;;;;;;;18.27;8.18;;;;;;;;;;4953795;28;20030;-68
2022/12/25 15:39:44;;;;;;;19.05;8.63;;;;;;;;;;4945908;28;20034;-68
2022/12/25 15:42:12;;;;;;;14.90;6.55;;;;;;;;;;4952387;28;20018;-68
2022/12/25 15:44:39;;;;;;;14.63;5.85;;;;;;;;;;4951684;28;20085;-68
2022/12/25 15:47:05;;;;;;;19.23;6.53;;;;;;;;;;4953563;28;20850;-68
2022/12/25 15:49:32;;;;;;;18.27;6.50;;;;;;;;;;4970439;28;20095;-68
2022/12/25 15:51:58;;;;;;;16.02;7.07;;;;;;;;;;4950130;28;20385;-68
2022/12/25 15:54:24;;;;;;;20.95;7.53;;;;;;;;;;4955586;28;20093;-68
2022/12/25 15:56:51;;;;;;;16.85;7.45;;;;;;;;;;4948939;28;20114;-68
2022/12/25 15:59:19;;;;;;;18.60;7.40;;;;;;;;;;4953131;28;20065;-68
2022/12/25 16:01:52;;;;;;;17.50;7.78;;;;;;;;;;4948094;28;20030;-68
2022/12/25 16:04:18;;;;;;;18.58;7.90;;;;;;;;;;4951530;28;20050;-69
2022/12/25 16:06:45;;;;;;;20.30;8.32;;;;;;;;;;4946953;28;20034;-68
2022/12/25 16:09:12;;;;;;;18.67;9.07;;;;;;;;;;4951916;28;20070;-68
2022/12/25 16:11:38;;;;;;;19.50;11.18;;;;;;;;;;4951151;28;20547;-69
2022/12/25 16:14:05;;;;;;;20.92;10.82;;;;;;;;;;4957375;28;20042;-68
2022/12/25 16:16:31;;;;;;;19.15;9.73;;;;;;;;;;4956463;28;20132;-69
2022/12/25 16:18:57;;;;;;;23.67;12.77;;;;;;;;;;4954447;28;20034;-68
2022/12/25 16:21:23;;;;;;;79.63;61.35;;;;;;;;;;4954611;28;20030;-69